createdAt,value
2018-06-23T00:00:06.133Z,37
2018-06-23T00:00:56.448Z,37
2018-06-23T00:01:46.297Z,37
2018-06-23T00:02:36.405Z,37
2018-06-23T00:03:26.676Z,37
2018-06-23T00:04:16.488Z,37
2018-06-23T00:05:06.211Z,37
2018-06-23T00:05:56.597Z,37
2018-06-23T00:06:45.885Z,37
2018-06-23T00:07:36.495Z,37
2018-06-23T00:08:26.495Z,37
2018-06-23T00:09:17.101Z,37
2018-06-23T00:10:07.163Z,36.9
2018-06-23T00:10:56.695Z,36.9
2018-06-23T00:11:47.285Z,36.9
2018-06-23T00:12:36.773Z,36.9
2018-06-23T00:13:26.317Z,36.9
2018-06-23T00:14:16.666Z,36.9
2018-06-23T00:15:06.977Z,36.9
2018-06-23T00:15:57.371Z,36.9
2018-06-23T00:16:47.425Z,36.9
2018-06-23T00:17:37.757Z,36.9
2018-06-23T00:18:26.696Z,36.9
2018-06-23T00:19:17.631Z,36.9
2018-06-23T00:20:07.691Z,36.9
2018-06-23T00:20:57.455Z,36.9
2018-06-23T00:21:47.809Z,36.9
2018-06-23T00:22:37.872Z,36.9
2018-06-23T00:23:27.092Z,36.9
2018-06-23T00:24:17.999Z,36.9
2018-06-23T00:25:07.776Z,36.9
2018-06-23T00:25:58.126Z,36.9
2018-06-23T00:26:47.584Z,36.9
2018-06-23T00:27:37.407Z,36.9
2018-06-23T00:28:28.057Z,36.9
2018-06-23T00:29:18.385Z,36.9
2018-06-23T00:30:07.866Z,36.9
2018-06-23T00:30:58.464Z,36.9
2018-06-23T00:31:48.621Z,36.9
2018-06-23T00:32:38.313Z,36.9
2018-06-23T00:33:27.850Z,36.9
2018-06-23T00:34:18.451Z,36.9
2018-06-23T00:35:08.811Z,36.9
2018-06-23T00:35:59.136Z,36.9
2018-06-23T00:36:49.240Z,36.9
2018-06-23T00:37:39.015Z,36.9
2018-06-23T00:38:28.501Z,36.9
2018-06-23T00:39:19.143Z,36.9
2018-06-23T00:40:09.181Z,36.8
2018-06-23T00:40:58.413Z,36.8
2018-06-23T00:41:48.745Z,36.8
2018-06-23T00:42:39.364Z,36.8
2018-06-23T00:43:29.133Z,36.9
2018-06-23T00:44:19.798Z,36.9
2018-06-23T00:45:09.834Z,36.8
2018-06-23T00:45:59.901Z,36.8
2018-06-23T00:46:49.938Z,36.9
2018-06-23T00:47:39.777Z,36.8
2018-06-23T00:48:29.515Z,36.8
2018-06-23T00:49:19.323Z,36.8
2018-06-23T00:50:09.660Z,36.8
2018-06-23T00:50:59.726Z,36.8
2018-06-23T00:51:49.571Z,36.8
2018-06-23T00:52:40.151Z,36.8
2018-06-23T00:53:29.901Z,36.8
2018-06-23T00:54:20.385Z,36.8
2018-06-23T00:55:10.608Z,36.8
2018-06-23T00:55:59.613Z,36.8
2018-06-23T00:56:49.127Z,36.8
2018-06-23T00:57:40.812Z,36.8
2018-06-23T00:58:29.617Z,36.8
2018-06-23T00:59:20.689Z,36.8
2018-06-23T01:00:10.522Z,36.8
2018-06-23T01:01:01.062Z,36.8
2018-06-23T01:01:51.101Z,36.8
2018-06-23T01:02:40.688Z,36.8
2018-06-23T01:03:30.703Z,36.8
2018-06-23T01:04:21.267Z,36.8
2018-06-23T01:05:10.339Z,36.7
2018-06-23T01:06:00.600Z,36.7
2018-06-23T01:06:51.198Z,36.7
2018-06-23T01:07:40.236Z,36.7
2018-06-23T01:08:30.866Z,36.7
2018-06-23T01:09:21.072Z,36.7
2018-06-23T01:10:10.447Z,36.7
2018-06-23T01:11:01.003Z,36.7
2018-06-23T01:11:50.312Z,36.7
2018-06-23T01:12:40.324Z,36.7
2018-06-23T01:13:31.261Z,36.7
2018-06-23T01:14:21.313Z,36.7
2018-06-23T01:15:11.104Z,36.7
2018-06-23T01:16:02.209Z,36.6
2018-06-23T01:16:51.438Z,36.6
2018-06-23T01:17:41.840Z,36.6
2018-06-23T01:18:31.595Z,36.6
2018-06-23T01:19:21.997Z,36.6
2018-06-23T01:20:10.921Z,36.6
2018-06-23T01:21:00.971Z,36.6
2018-06-23T01:21:52.157Z,36.6
2018-06-23T01:22:42.221Z,36.6
2018-06-23T01:23:32.026Z,36.6
2018-06-23T01:24:22.331Z,36.6
2018-06-23T01:25:12.429Z,36.6
2018-06-23T01:26:02.193Z,36.6
2018-06-23T01:26:51.443Z,36.6
2018-06-23T01:27:42.622Z,36.6
2018-06-23T01:28:31.823Z,36.6
2018-06-23T01:29:22.181Z,36.6
2018-06-23T01:30:12.267Z,36.6
2018-06-23T01:31:02.609Z,36.6
2018-06-23T01:31:52.927Z,36.6
2018-06-23T01:32:42.654Z,36.6
2018-06-23T01:33:33.069Z,36.6
2018-06-23T01:34:23.074Z,36.6
2018-06-23T01:35:12.949Z,36.6
2018-06-23T01:36:03.214Z,36.6
2018-06-23T01:36:52.763Z,36.6
2018-06-23T01:37:42.802Z,36.6
2018-06-23T01:38:32.311Z,36.6
2018-06-23T01:39:22.684Z,36.6
2018-06-23T01:40:12.722Z,36.6
2018-06-23T01:41:03.351Z,36.6
2018-06-23T01:41:52.590Z,36.6
2018-06-23T01:42:42.640Z,36.6
2018-06-23T01:43:33.827Z,36.6
2018-06-23T01:44:23.880Z,36.6
2018-06-23T01:45:13.970Z,36.6
2018-06-23T01:46:02.894Z,36.6
2018-06-23T01:46:52.939Z,36.6
2018-06-23T01:47:43.002Z,36.6
2018-06-23T01:48:34.255Z,36.6
2018-06-23T01:49:23.729Z,36.6
2018-06-23T01:50:13.507Z,36.6
2018-06-23T01:51:04.172Z,36.6
2018-06-23T01:51:54.711Z,36.6
2018-06-23T01:52:43.700Z,36.6
2018-06-23T01:53:34.044Z,36.6
2018-06-23T01:54:23.795Z,36.5
2018-06-23T01:55:14.914Z,36.5
2018-06-23T01:56:04.960Z,36.5
2018-06-23T01:56:54.676Z,36.5
2018-06-23T01:57:45.414Z,36.5
2018-06-23T01:58:34.445Z,36.5
2018-06-23T01:59:24.733Z,36.4
2018-06-23T02:00:13.730Z,36.4
2018-06-23T02:01:05.132Z,36.4
2018-06-23T02:01:54.948Z,36.4
2018-06-23T02:02:45.843Z,36.4
2018-06-23T02:03:35.849Z,36.4
2018-06-23T02:04:25.097Z,36.4
2018-06-23T02:05:14.645Z,36.4
2018-06-23T02:06:04.446Z,36.4
2018-06-23T02:06:55.343Z,36.4
2018-06-23T02:07:45.352Z,36.4
2018-06-23T02:08:35.668Z,36.4
2018-06-23T02:09:24.941Z,36.4
2018-06-23T02:10:14.442Z,36.4
2018-06-23T02:11:05.720Z,36.4
2018-06-23T02:11:55.952Z,36.4
2018-06-23T02:12:45.634Z,36.4
2018-06-23T02:13:36.347Z,36.4
2018-06-23T02:14:26.682Z,36.4
2018-06-23T02:15:15.312Z,36.4
2018-06-23T02:16:05.417Z,36.4
2018-06-23T02:16:56.518Z,36.4
2018-06-23T02:17:46.373Z,36.3
2018-06-23T02:18:36.980Z,36.3
2018-06-23T02:19:26.560Z,36.3
2018-06-23T02:20:16.042Z,36.3
2018-06-23T02:21:06.419Z,36.3
2018-06-23T02:21:56.387Z,36.3
2018-06-23T02:22:47.319Z,36.3
2018-06-23T02:23:36.771Z,36.3
2018-06-23T02:24:26.690Z,36.3
2018-06-23T02:25:17.184Z,36.3
2018-06-23T02:26:06.961Z,36.3
2018-06-23T02:26:57.641Z,36.3
2018-06-23T02:27:47.370Z,36.3
2018-06-23T02:28:36.955Z,36.3
2018-06-23T02:29:27.129Z,36.3
2018-06-23T02:30:16.480Z,36.3
2018-06-23T02:31:07.471Z,36.3
2018-06-23T02:31:57.549Z,36.3
2018-06-23T02:32:46.933Z,36.3
2018-06-23T02:33:38.187Z,36.3
2018-06-23T02:34:27.369Z,36.3
2018-06-23T02:35:18.040Z,36.3
2018-06-23T02:36:07.745Z,36.3
2018-06-23T02:36:57.594Z,36.3
2018-06-23T02:37:48.233Z,36.3
2018-06-23T02:38:38.248Z,36.3
2018-06-23T02:39:27.244Z,36.2
2018-06-23T02:40:18.091Z,36.2
2018-06-23T02:41:07.573Z,36.2
2018-06-23T02:41:58.487Z,36.2
2018-06-23T02:42:48.811Z,36.2
2018-06-23T02:43:38.452Z,36.2
2018-06-23T02:44:28.367Z,36.2
2018-06-23T02:45:19.006Z,36.2
2018-06-23T02:46:08.813Z,36.1
2018-06-23T02:46:58.663Z,36.1
2018-06-23T02:47:48.367Z,36.1
2018-06-23T02:48:38.480Z,36.1
2018-06-23T02:49:29.060Z,36.1
2018-06-23T02:50:19.402Z,36.1
2018-06-23T02:51:07.919Z,36.1
2018-06-23T02:51:58.677Z,36.1
2018-06-23T02:52:49.187Z,36.1
2018-06-23T02:53:38.786Z,36.1
2018-06-23T02:54:29.448Z,36.1
2018-06-23T02:55:19.542Z,36.1
2018-06-23T02:56:09.306Z,36.1
2018-06-23T02:56:58.858Z,36.1
2018-06-23T02:57:48.641Z,36.1
2018-06-23T02:58:39.016Z,36.1
2018-06-23T02:59:29.262Z,36.1
2018-06-23T03:00:19.611Z,36.1
2018-06-23T03:01:09.515Z,36.1
2018-06-23T03:01:59.719Z,36.1
2018-06-23T03:02:49.612Z,36.1
2018-06-23T03:03:39.804Z,36.1
2018-06-23T03:04:28.572Z,36
2018-06-23T03:05:19.833Z,36
2018-06-23T03:06:10.379Z,36
2018-06-23T03:06:59.619Z,36
2018-06-23T03:07:50.734Z,36
2018-06-23T03:08:40.303Z,36
2018-06-23T03:09:30.112Z,35.9
2018-06-23T03:10:20.147Z,35.9
2018-06-23T03:11:09.662Z,35.9
2018-06-23T03:12:00.561Z,35.9
2018-06-23T03:12:50.663Z,35.9
2018-06-23T03:13:40.410Z,35.9
2018-06-23T03:14:29.642Z,35.9
2018-06-23T03:15:21.014Z,35.9
2018-06-23T03:16:10.585Z,35.9
2018-06-23T03:16:59.521Z,35.9
2018-06-23T03:17:50.719Z,35.9
2018-06-23T03:18:40.536Z,35.9
2018-06-23T03:19:30.904Z,35.9
2018-06-23T03:20:20.041Z,35.9
2018-06-23T03:21:11.021Z,35.9
2018-06-23T03:22:00.471Z,35.9
2018-06-23T03:22:50.790Z,35.8
2018-06-23T03:23:41.603Z,35.8
2018-06-23T03:24:30.348Z,35.8
2018-06-23T03:25:21.173Z,35.8
2018-06-23T03:26:11.034Z,35.8
2018-06-23T03:27:01.406Z,35.8
2018-06-23T03:27:50.875Z,35.8
2018-06-23T03:28:41.510Z,35.8
2018-06-23T03:29:31.034Z,35.8
2018-06-23T03:30:21.994Z,35.8
2018-06-23T03:31:12.087Z,35.8
2018-06-23T03:32:01.544Z,35.8
2018-06-23T03:32:51.328Z,35.8
2018-06-23T03:33:41.640Z,35.8
2018-06-23T03:34:31.688Z,35.8
2018-06-23T03:35:21.752Z,35.8
2018-06-23T03:36:11.803Z,35.8
2018-06-23T03:37:01.109Z,35.8
2018-06-23T03:37:52.535Z,35.8
2018-06-23T03:38:42.521Z,35.8
2018-06-23T03:39:32.023Z,35.8
2018-06-23T03:40:22.091Z,35.7
2018-06-23T03:41:12.753Z,35.8
2018-06-23T03:42:01.942Z,35.8
2018-06-23T03:42:53.339Z,35.8
2018-06-23T03:43:41.863Z,35.7
2018-06-23T03:44:32.407Z,35.7
2018-06-23T03:45:22.730Z,35.8
2018-06-23T03:46:12.285Z,35.8
2018-06-23T03:47:03.173Z,35.8
2018-06-23T03:47:53.271Z,35.8
2018-06-23T03:48:42.774Z,35.8
2018-06-23T03:49:33.353Z,35.8
2018-06-23T03:50:23.169Z,35.8
2018-06-23T03:51:13.258Z,35.8
2018-06-23T03:52:02.461Z,35.8
2018-06-23T03:52:53.333Z,35.8
2018-06-23T03:53:43.112Z,35.8
2018-06-23T03:54:33.467Z,35.7
2018-06-23T03:55:23.800Z,35.8
2018-06-23T03:56:13.595Z,35.7
2018-06-23T03:57:03.372Z,35.7
2018-06-23T03:57:53.402Z,35.7
2018-06-23T03:58:44.085Z,35.7
2018-06-23T03:59:33.823Z,35.7
2018-06-23T04:00:23.648Z,35.7
2018-06-23T04:01:14.255Z,35.7
2018-06-23T04:02:04.315Z,35.6
2018-06-23T04:02:53.855Z,35.6
2018-06-23T04:03:44.432Z,35.6
2018-06-23T04:04:34.218Z,35.6
2018-06-23T04:05:24.597Z,35.6
2018-06-23T04:06:14.062Z,35.6
2018-06-23T04:07:04.271Z,35.6
2018-06-23T04:07:54.167Z,35.6
2018-06-23T04:08:44.264Z,35.6
2018-06-23T04:09:34.601Z,35.6
2018-06-23T04:10:24.927Z,35.6
2018-06-23T04:11:14.452Z,35.6
2018-06-23T04:12:04.768Z,35.6
2018-06-23T04:12:54.861Z,35.6
2018-06-23T04:13:44.879Z,35.6
2018-06-23T04:14:34.993Z,35.6
2018-06-23T04:15:25.030Z,35.6
2018-06-23T04:16:15.833Z,35.6
2018-06-23T04:17:05.940Z,35.6
2018-06-23T04:17:55.222Z,35.6
2018-06-23T04:18:45.737Z,35.6
2018-06-23T04:19:35.367Z,35.6
2018-06-23T04:20:25.409Z,35.6
2018-06-23T04:21:15.236Z,35.6
2018-06-23T04:22:06.017Z,35.5
2018-06-23T04:22:55.579Z,35.5
2018-06-23T04:23:45.671Z,35.5
2018-06-23T04:24:34.887Z,35.5
2018-06-23T04:25:24.914Z,35.5
2018-06-23T04:26:16.057Z,35.4
2018-06-23T04:27:06.385Z,35.5
2018-06-23T04:27:56.702Z,35.5
2018-06-23T04:28:46.446Z,35.4
2018-06-23T04:29:36.338Z,35.5
2018-06-23T04:30:26.143Z,35.4
2018-06-23T04:31:15.924Z,35.4
2018-06-23T04:32:07.108Z,35.4
2018-06-23T04:32:56.787Z,35.4
2018-06-23T04:33:45.860Z,35.4
2018-06-23T04:34:36.976Z,35.4
2018-06-23T04:35:26.539Z,35.4
2018-06-23T04:36:16.879Z,35.4
2018-06-23T04:37:06.927Z,35.4
2018-06-23T04:37:56.521Z,35.4
2018-06-23T04:38:46.848Z,35.4
2018-06-23T04:39:35.996Z,35.4
2018-06-23T04:40:26.696Z,35.4
2018-06-23T04:41:17.702Z,35.4
2018-06-23T04:42:07.813Z,35.4
2018-06-23T04:42:57.377Z,35.4
2018-06-23T04:43:47.097Z,35.4
2018-06-23T04:44:37.819Z,35.4
2018-06-23T04:45:27.473Z,35.3
2018-06-23T04:46:18.107Z,35.3
2018-06-23T04:47:07.888Z,35.3
2018-06-23T04:47:57.632Z,35.4
2018-06-23T04:48:48.311Z,35.3
2018-06-23T04:49:37.532Z,35.3
2018-06-23T04:50:27.846Z,35.3
2018-06-23T04:51:18.219Z,35.3
2018-06-23T04:52:07.960Z,35.3
2018-06-23T04:52:58.069Z,35.3
2018-06-23T04:53:48.088Z,35.3
2018-06-23T04:54:37.897Z,35.3
2018-06-23T04:55:28.491Z,35.3
2018-06-23T04:56:18.825Z,35.3
2018-06-23T04:57:08.333Z,35.3
2018-06-23T04:57:59.342Z,35.3
2018-06-23T04:58:48.510Z,35.3
2018-06-23T04:59:39.145Z,35.3
2018-06-23T05:00:29.606Z,35.3
2018-06-23T05:01:18.711Z,35.3
2018-06-23T05:02:09.252Z,35.3
2018-06-23T05:02:58.789Z,35.3
2018-06-23T05:03:49.122Z,35.3
2018-06-23T05:04:38.076Z,35.3
2018-06-23T05:05:28.987Z,35.3
2018-06-23T05:06:18.574Z,35.3
2018-06-23T05:07:08.898Z,35.3
2018-06-23T05:07:58.937Z,35.3
2018-06-23T05:08:49.130Z,35.3
2018-06-23T05:09:39.353Z,35.3
2018-06-23T05:10:28.318Z,35.3
2018-06-23T05:11:18.937Z,35.3
2018-06-23T05:12:09.517Z,35.3
2018-06-23T05:12:59.283Z,35.3
2018-06-23T05:13:49.665Z,35.3
2018-06-23T05:14:39.457Z,35.3
2018-06-23T05:15:29.297Z,35.3
2018-06-23T05:16:20.374Z,35.3
2018-06-23T05:17:10.159Z,35.3
2018-06-23T05:18:00.236Z,35.3
2018-06-23T05:18:49.987Z,35.3
2018-06-23T05:19:38.712Z,35.3
2018-06-23T05:20:29.989Z,35.3
2018-06-23T05:21:20.744Z,35.3
2018-06-23T05:22:09.789Z,35.3
2018-06-23T05:22:59.839Z,35.3
2018-06-23T05:23:50.450Z,35.3
2018-06-23T05:24:40.226Z,35.3
2018-06-23T05:25:29.984Z,35.3
2018-06-23T05:26:20.634Z,35.3
2018-06-23T05:27:09.925Z,35.3
2018-06-23T05:28:00.985Z,35.2
2018-06-23T05:28:50.588Z,35.3
2018-06-23T05:29:40.627Z,35.3
2018-06-23T05:30:31.116Z,35.3
2018-06-23T05:31:21.023Z,35.3
2018-06-23T05:32:10.206Z,35.2
2018-06-23T05:33:00.333Z,35.3
2018-06-23T05:33:50.357Z,35.3
2018-06-23T05:34:41.007Z,35.2
2018-06-23T05:35:30.775Z,35.2
2018-06-23T05:36:21.402Z,35.2
2018-06-23T05:37:11.527Z,35.3
2018-06-23T05:38:01.276Z,35.2
2018-06-23T05:38:51.564Z,35.2
2018-06-23T05:39:40.811Z,35.2
2018-06-23T05:40:31.173Z,35.2
2018-06-23T05:41:21.798Z,35.2
2018-06-23T05:42:10.436Z,35.2
2018-06-23T05:43:01.648Z,35.2
2018-06-23T05:43:51.461Z,35.2
2018-06-23T05:44:41.597Z,35.2
2018-06-23T05:45:31.835Z,35.3
2018-06-23T05:46:21.622Z,35.2
2018-06-23T05:47:12.238Z,35.2
2018-06-23T05:48:01.984Z,35.2
2018-06-23T05:48:52.387Z,35.2
2018-06-23T05:49:42.882Z,35.1
2018-06-23T05:50:31.813Z,35.1
2018-06-23T05:51:23.652Z,35.2
2018-06-23T05:52:12.553Z,35.1
2018-06-23T05:53:02.835Z,35.1
2018-06-23T05:53:53.204Z,35.1
2018-06-23T05:54:42.674Z,35.1
2018-06-23T05:55:32.811Z,35.1
2018-06-23T05:56:23.433Z,35.1
2018-06-23T05:57:13.441Z,35.1
2018-06-23T05:58:02.378Z,35.1
2018-06-23T05:58:53.558Z,35.1
2018-06-23T05:59:43.680Z,35.1
2018-06-23T06:00:33.382Z,35.1
2018-06-23T06:01:22.902Z,35.1
2018-06-23T06:02:13.861Z,35.1
2018-06-23T06:03:03.605Z,35.1
2018-06-23T06:03:53.959Z,35.1
2018-06-23T06:04:43.823Z,35.1
2018-06-23T06:05:33.502Z,35.1
2018-06-23T06:06:23.871Z,35.1
2018-06-23T06:07:14.206Z,35.1
2018-06-23T06:08:04.266Z,35.1
2018-06-23T06:08:54.317Z,35.1
2018-06-23T06:09:44.393Z,35.1
2018-06-23T06:10:33.599Z,35.1
2018-06-23T06:11:24.237Z,35.1
2018-06-23T06:12:14.332Z,35.1
2018-06-23T06:13:04.388Z,35.1
2018-06-23T06:13:54.732Z,35.1
2018-06-23T06:14:44.214Z,35.1
2018-06-23T06:15:34.579Z,35.1
2018-06-23T06:16:24.596Z,35.1
2018-06-23T06:17:14.930Z,35.2
2018-06-23T06:18:04.733Z,35.2
2018-06-23T06:18:54.778Z,35.3
2018-06-23T06:19:45.106Z,35.3
2018-06-23T06:20:34.930Z,35.3
2018-06-23T06:21:24.963Z,35.3
2018-06-23T06:22:14.495Z,35.4
2018-06-23T06:23:04.553Z,35.4
2018-06-23T06:23:56.670Z,35.4
2018-06-23T06:24:45.185Z,35.4
2018-06-23T06:25:34.475Z,35.4
2018-06-23T06:26:25.334Z,35.4
2018-06-23T06:27:15.715Z,35.4
2018-06-23T06:28:05.460Z,35.4
2018-06-23T06:28:55.666Z,35.4
2018-06-23T06:29:44.816Z,35.4
2018-06-23T06:30:35.968Z,35.4
2018-06-23T06:31:26.010Z,35.4
2018-06-23T06:32:15.518Z,35.3
2018-06-23T06:33:05.608Z,35.3
2018-06-23T06:33:55.673Z,35.3
2018-06-23T06:34:46.313Z,35.3
2018-06-23T06:35:36.485Z,35.3
2018-06-23T06:36:25.838Z,35.3
2018-06-23T06:37:15.926Z,35.3
2018-06-23T06:38:05.728Z,35.3
2018-06-23T06:38:56.658Z,35.3
2018-06-23T06:39:46.638Z,35.3
2018-06-23T06:40:36.780Z,35.3
2018-06-23T06:41:26.748Z,35.3
2018-06-23T06:42:16.542Z,35.3
2018-06-23T06:43:06.636Z,35.2
2018-06-23T06:43:56.429Z,35.3
2018-06-23T06:44:46.905Z,35.3
2018-06-23T06:45:36.578Z,35.2
2018-06-23T06:46:26.382Z,35.2
2018-06-23T06:47:16.187Z,35.2
2018-06-23T06:48:06.730Z,35.2
2018-06-23T06:48:56.762Z,35.2
2018-06-23T06:49:46.308Z,35.2
2018-06-23T06:50:36.675Z,35.2
2018-06-23T06:51:26.712Z,35.1
2018-06-23T06:52:17.392Z,35.1
2018-06-23T06:53:07.389Z,35.1
2018-06-23T06:53:57.700Z,35.1
2018-06-23T06:54:47.546Z,35.1
2018-06-23T06:55:37.828Z,35.1
2018-06-23T06:56:27.689Z,35.1
2018-06-23T06:57:18.916Z,35.1
2018-06-23T06:58:07.761Z,35.1
2018-06-23T06:58:58.068Z,35.1
2018-06-23T06:59:47.426Z,35.1
2018-06-23T07:00:37.672Z,35.1
2018-06-23T07:01:27.766Z,35.1
2018-06-23T07:02:17.801Z,35
2018-06-23T07:03:07.886Z,35
2018-06-23T07:03:58.199Z,35
2018-06-23T07:04:48.535Z,35
2018-06-23T07:05:38.620Z,35
2018-06-23T07:06:27.853Z,35
2018-06-23T07:07:18.740Z,34.9
2018-06-23T07:08:08.530Z,34.9
2018-06-23T07:08:59.346Z,35
2018-06-23T07:09:48.705Z,35
2018-06-23T07:10:38.446Z,35
2018-06-23T07:11:28.228Z,34.9
2018-06-23T07:12:19.149Z,34.9
2018-06-23T07:13:09.199Z,34.9
2018-06-23T07:13:59.233Z,34.9
2018-06-23T07:14:48.768Z,34.9
2018-06-23T07:15:39.989Z,34.9
2018-06-23T07:16:29.146Z,34.9
2018-06-23T07:17:19.509Z,34.9
2018-06-23T07:18:09.566Z,34.9
2018-06-23T07:18:59.601Z,34.9
2018-06-23T07:19:49.093Z,34.9
2018-06-23T07:20:39.134Z,34.9
2018-06-23T07:21:29.773Z,34.9
2018-06-23T07:22:19.327Z,35
2018-06-23T07:23:09.613Z,35
2018-06-23T07:24:01.635Z,35
2018-06-23T07:24:49.540Z,35.1
2018-06-23T07:25:38.972Z,35
2018-06-23T07:26:29.874Z,35.1
2018-06-23T07:27:19.724Z,35
2018-06-23T07:28:09.739Z,35
2018-06-23T07:29:00.334Z,35
2018-06-23T07:29:49.840Z,35
2018-06-23T07:30:40.687Z,35
2018-06-23T07:31:29.952Z,35
2018-06-23T07:32:20.344Z,35
2018-06-23T07:33:10.396Z,34.9
2018-06-23T07:34:00.148Z,35
2018-06-23T07:34:52.413Z,34.9
2018-06-23T07:35:40.015Z,34.9
2018-06-23T07:36:30.939Z,34.9
2018-06-23T07:37:20.744Z,34.9
2018-06-23T07:38:10.444Z,34.9
2018-06-23T07:39:01.088Z,34.9
2018-06-23T07:39:50.614Z,34.9
2018-06-23T07:40:41.843Z,32.5
2018-06-23T07:41:30.774Z,26.2
2018-06-23T07:42:21.115Z,32.6
2018-06-23T07:43:10.609Z,34.7
2018-06-23T07:44:01.256Z,34.9
2018-06-23T07:44:50.729Z,34.9
2018-06-23T07:45:41.086Z,34.8
2018-06-23T07:46:30.651Z,34.8
2018-06-23T07:47:21.891Z,34.6
2018-06-23T07:48:11.791Z,34.6
2018-06-23T07:49:01.563Z,34.4
2018-06-23T07:49:51.896Z,34.4
2018-06-23T07:50:41.792Z,34.4
2018-06-23T07:51:32.050Z,34.5
2018-06-23T07:52:21.822Z,34.6
2018-06-23T07:53:10.791Z,34.6
2018-06-23T07:54:01.370Z,34.7
2018-06-23T07:54:52.015Z,34.8
2018-06-23T07:55:42.115Z,34.8
2018-06-23T07:56:32.148Z,34.9
2018-06-23T07:57:22.476Z,34.9
2018-06-23T07:58:11.661Z,35
2018-06-23T07:59:02.015Z,35.1
2018-06-23T07:59:51.817Z,35.1
2018-06-23T08:00:42.474Z,35.1
2018-06-23T08:01:32.808Z,35.1
2018-06-23T08:02:22.540Z,35.2
2018-06-23T08:03:12.652Z,35.1
2018-06-23T08:04:02.727Z,35.1
2018-06-23T08:04:52.712Z,35.1
2018-06-23T08:05:42.264Z,34.5
2018-06-23T08:06:32.890Z,32.1
2018-06-23T08:07:22.647Z,36.9
2018-06-23T08:08:13.284Z,37.9
2018-06-23T08:09:02.829Z,37.1
2018-06-23T08:09:52.545Z,36.1
2018-06-23T08:10:43.470Z,35.7
2018-06-23T08:11:33.241Z,35.4
2018-06-23T08:12:23.073Z,35.2
2018-06-23T08:13:13.608Z,35
2018-06-23T08:14:03.455Z,34.8
2018-06-23T08:14:53.480Z,34.8
2018-06-23T08:15:43.245Z,36
2018-06-23T08:16:33.873Z,38.3
2018-06-23T08:17:23.724Z,38.6
2018-06-23T08:18:14.013Z,38.2
2018-06-23T08:19:03.759Z,38.1
2018-06-23T08:19:53.625Z,38.2
2018-06-23T08:20:43.113Z,38.6
2018-06-23T08:21:34.009Z,39.1
2018-06-23T08:22:24.030Z,39.6
2018-06-23T08:23:13.568Z,40
2018-06-23T08:24:03.996Z,40.1
2018-06-23T08:24:54.674Z,40.3
2018-06-23T08:25:44.366Z,40.5
2018-06-23T08:26:35.975Z,40.6
2018-06-23T08:27:24.707Z,40.5
2018-06-23T08:28:14.295Z,40.6
2018-06-23T08:29:04.520Z,41
2018-06-23T08:29:54.957Z,41.4
2018-06-23T08:30:44.672Z,41.6
2018-06-23T08:31:34.792Z,41.6
2018-06-23T08:32:24.810Z,41.7
2018-06-23T08:33:14.847Z,41.9
2018-06-23T08:34:04.894Z,42.1
2018-06-23T08:34:55.222Z,42.2
2018-06-23T08:35:44.759Z,41.9
2018-06-23T08:36:35.094Z,41.6
2018-06-23T08:37:25.277Z,41.6
2018-06-23T08:38:15.202Z,41.7
2018-06-23T08:39:05.599Z,41.6
2018-06-23T08:39:55.630Z,41.6
2018-06-23T08:40:45.392Z,41.4
2018-06-23T08:41:35.732Z,41.1
2018-06-23T08:42:25.527Z,40.9
2018-06-23T08:43:15.866Z,40.6
2018-06-23T08:44:05.662Z,40.8
2018-06-23T08:44:55.743Z,40.9
2018-06-23T08:45:45.787Z,41.1
2018-06-23T08:46:36.118Z,41.7
2018-06-23T08:47:25.922Z,42.3
2018-06-23T08:48:16.287Z,42.3
2018-06-23T08:49:06.869Z,41.9
2018-06-23T08:49:56.137Z,42.1
2018-06-23T08:50:45.907Z,42.3
2018-06-23T08:51:36.256Z,42.6
2018-06-23T08:52:25.994Z,42.9
2018-06-23T08:53:16.352Z,43.2
2018-06-23T08:54:05.548Z,43.6
2018-06-23T08:54:56.770Z,44.1
2018-06-23T08:55:46.794Z,44.5
2018-06-23T08:56:36.324Z,44.9
2018-06-23T08:57:26.904Z,45.4
2018-06-23T08:58:16.184Z,45.6
2018-06-23T08:59:06.566Z,45.9
2018-06-23T08:59:56.589Z,46.1
2018-06-23T09:00:47.190Z,46.3
2018-06-23T09:01:37.241Z,46.4
2018-06-23T09:02:27.332Z,46.8
2018-06-23T09:03:16.820Z,47.1
2018-06-23T09:04:07.490Z,47.4
2018-06-23T09:04:57.495Z,47.5
2018-06-23T09:05:47.609Z,47.7
2018-06-23T09:06:37.038Z,47.9
2018-06-23T09:07:26.868Z,47.5
2018-06-23T09:08:17.217Z,47.3
2018-06-23T09:09:07.881Z,47.5
2018-06-23T09:09:57.413Z,48
2018-06-23T09:10:46.539Z,48.2
2018-06-23T09:11:38.019Z,48.1
2018-06-23T09:12:28.183Z,48.1
2018-06-23T09:13:17.580Z,48.4
2018-06-23T09:14:07.904Z,48.6
2018-06-23T09:14:58.039Z,48.4
2018-06-23T09:15:48.319Z,48.3
2018-06-23T09:16:38.421Z,48.2
2018-06-23T09:17:27.935Z,47.9
2018-06-23T09:18:17.704Z,47.8
2018-06-23T09:19:08.021Z,47.8
2018-06-23T09:19:58.662Z,47.9
2018-06-23T09:20:48.702Z,48.3
2018-06-23T09:21:37.651Z,48.2
2018-06-23T09:22:28.342Z,47.9
2018-06-23T09:23:18.155Z,47.6
2018-06-23T09:24:08.964Z,47.7
2018-06-23T09:24:58.271Z,47.9
2018-06-23T09:25:49.240Z,48.1
2018-06-23T09:26:39.180Z,48.2
2018-06-23T09:27:28.896Z,48.1
2018-06-23T09:28:18.695Z,48.1
2018-06-23T09:29:09.016Z,48.1
2018-06-23T09:29:59.117Z,48.2
2018-06-23T09:30:48.621Z,48.8
2018-06-23T09:31:39.233Z,49.6
2018-06-23T09:32:29.592Z,50.3
2018-06-23T09:33:19.666Z,50.6
2018-06-23T09:34:09.447Z,50.7
2018-06-23T09:34:59.178Z,50.6
2018-06-23T09:35:49.859Z,50.6
2018-06-23T09:36:39.124Z,50.4
2018-06-23T09:37:29.677Z,50.5
2018-06-23T09:38:19.472Z,50.6
2018-06-23T09:39:09.796Z,50.3
2018-06-23T09:39:59.390Z,49.9
2018-06-23T09:40:49.414Z,49.8
2018-06-23T09:41:38.648Z,49.6
2018-06-23T09:42:29.504Z,49.3
2018-06-23T09:43:20.394Z,49.5
2018-06-23T09:44:09.909Z,50.3
2018-06-23T09:44:59.154Z,50.9
2018-06-23T09:45:51.117Z,51
2018-06-23T09:46:39.818Z,50.9
2018-06-23T09:47:30.193Z,50.6
2018-06-23T09:48:20.487Z,50.6
2018-06-23T09:49:10.151Z,50.8
2018-06-23T09:50:00.092Z,51.2
2018-06-23T09:50:50.439Z,51.6
2018-06-23T09:51:39.926Z,51.8
2018-06-23T09:52:30.577Z,51.8
2018-06-23T09:53:19.769Z,51.5
2018-06-23T09:54:10.685Z,51.3
2018-06-23T09:55:01.016Z,51
2018-06-23T09:55:51.280Z,50.9
2018-06-23T09:56:40.623Z,50.9
2018-06-23T09:57:30.651Z,51.1
2018-06-23T09:58:21.297Z,51.3
2018-06-23T09:59:11.328Z,51.4
2018-06-23T10:00:01.662Z,51.6
2018-06-23T10:00:51.207Z,51.7
2018-06-23T10:01:40.972Z,51.6
2018-06-23T10:02:31.333Z,51.5
2018-06-23T10:03:22.633Z,51.5
2018-06-23T10:04:11.456Z,51.6
2018-06-23T10:05:01.238Z,51.8
2018-06-23T10:06:42.165Z,52
2018-06-23T10:07:31.656Z,52.1
2018-06-23T10:08:22.073Z,52.2
2018-06-23T10:10:02.146Z,52.6
2018-06-23T10:10:52.254Z,52.6
2018-06-23T10:11:41.756Z,52.6
2018-06-23T10:12:32.081Z,52.6
2018-06-23T10:13:22.405Z,52.8
2018-06-23T10:14:12.483Z,53.1
2018-06-23T10:15:02.215Z,53.5
2018-06-23T10:15:52.608Z,53.9
2018-06-23T10:16:42.184Z,54.3
2018-06-23T10:17:32.709Z,54.5
2018-06-23T10:18:21.833Z,54.8
2018-06-23T10:19:12.553Z,55
2018-06-23T10:20:01.895Z,55.2
2018-06-23T10:20:52.974Z,55.3
2018-06-23T10:21:43.185Z,55.4
2018-06-23T10:22:33.373Z,55.6
2018-06-23T10:23:23.157Z,55.7
2018-06-23T10:24:12.703Z,55.8
2018-06-23T10:25:02.995Z,55.8
2018-06-23T10:25:53.311Z,55.9
2018-06-23T10:26:43.095Z,56
2018-06-23T10:27:34.059Z,56.1
2018-06-23T10:28:23.522Z,56.2
2018-06-23T10:29:13.593Z,56.3
2018-06-23T10:30:02.581Z,56.4
2018-06-23T10:30:53.156Z,56.4
2018-06-23T10:31:43.761Z,56.5
2018-06-23T10:32:33.627Z,56.6
2018-06-23T10:33:23.865Z,56.6
2018-06-23T10:34:14.257Z,56.7
2018-06-23T10:35:03.231Z,56.8
2018-06-23T10:35:54.379Z,56.8
2018-06-23T10:36:44.168Z,56.9
2018-06-23T10:37:34.500Z,56.9
2018-06-23T10:38:24.005Z,56.9
2018-06-23T10:39:14.389Z,57
2018-06-23T10:40:05.866Z,57.1
2018-06-23T10:40:53.913Z,57.1
2018-06-23T10:41:44.517Z,57.2
2018-06-23T10:42:34.878Z,57.2
2018-06-23T10:43:24.650Z,57.3
2018-06-23T10:44:14.217Z,57.3
2018-06-23T10:45:04.566Z,57.3
2018-06-23T10:45:54.115Z,57.4
2018-06-23T10:46:44.453Z,57.4
2018-06-23T10:47:34.121Z,57.4
2018-06-23T10:48:24.302Z,57.5
2018-06-23T10:49:14.633Z,57.5
2018-06-23T10:50:04.891Z,57.3
2018-06-23T10:50:54.677Z,57.2
2018-06-23T10:51:44.153Z,57.1
2018-06-23T10:52:35.082Z,57.1
2018-06-23T10:53:25.416Z,57.1
2018-06-23T10:54:15.299Z,57.1
2018-06-23T10:55:05.287Z,57.1
2018-06-23T10:55:55.070Z,57.1
2018-06-23T10:56:45.667Z,57.2
2018-06-23T10:57:35.188Z,57.2
2018-06-23T10:58:25.536Z,57.3
2018-06-23T10:59:15.660Z,57.3
2018-06-23T11:00:05.660Z,57.3
2018-06-23T11:00:56.236Z,57.3
2018-06-23T11:01:45.770Z,57.3
2018-06-23T11:02:35.801Z,57.4
2018-06-23T11:03:26.169Z,57.4
2018-06-23T11:04:16.233Z,57.5
2018-06-23T11:05:07.568Z,57.5
2018-06-23T11:05:56.719Z,57.6
2018-06-23T11:06:46.218Z,57.6
2018-06-23T11:07:36.220Z,57.6
2018-06-23T11:08:26.539Z,57.6
2018-06-23T11:09:16.598Z,57.7
2018-06-23T11:12:36.331Z,57.8